X  Fermer Données météorologiques d'aviation de Metar     EHRD Rotterdam The Hague Airport
Température
20°C Température
12°C Point de rosée
60% Humidité



Vent
5 KM/H
3 MPH
1 M/S
3 KTS



330°
NNO
Conditions actuelles

Clair Clair
Pression 1024.92 (hPa) - 30.27 (inHg)
Visibilité 6.2 (mile) - 10 (km)
Aéroport
Code de l'aéroport EHRD

Emplacement: Rotterdam The Hague Airport
Distance: 16 (km)

Metar:
EHRD 131925Z AUTO 33003KT 290V010 9999 NCD 20/12 Q1025 NOSIG

Temps: 13-06-2021 21:25 CEST